Terminal Aerodrome Forecast
Issued by NWS

Home | Current Version | Previous Version | Text Only | Print | Product List | Glossary Off
Versions: 1 2 3 4 5 6 7 8 9 10 11 12 13 14 15 16 17 18 19 20 21 22 23 24 25 26

678
FTUS45 KGGW 251121
TAFOLF
TAF
KOLF 251121Z 2512/2612 01005KT P6SM -SHRA OVC060
     FM251500 02007KT P6SM VCSH OVC060
     FM252100 35008KT P6SM -SHRA BKN090
     FM260000 34008KT P6SM BKN130
     FM260600 31004KT P6SM BKN070=

USA.gov is the U.S. government's official web portal to all federal, state and local government web resources and services.